createdAt,value
2022-11-03T00:00:19.131Z,2.45
2022-11-03T00:02:22.934Z,2.47
2022-11-03T00:04:24.968Z,3.25
2022-11-03T00:06:28.255Z,2.85
2022-11-03T00:08:38.525Z,2.72
2022-11-03T00:10:50.238Z,3.70
2022-11-03T00:12:58.916Z,2.13
2022-11-03T00:15:13.409Z,2.10
2022-11-03T00:17:22.997Z,3.20
2022-11-03T00:19:30.576Z,1.23
2022-11-03T00:21:40.333Z,1.85
2022-11-03T00:23:50.776Z,1.80
2022-11-03T00:25:59.883Z,2.47
2022-11-03T00:28:07.870Z,1.67
2022-11-03T00:30:17.079Z,3.70
2022-11-03T00:32:27.274Z,1.73
2022-11-03T00:34:37.702Z,2.08
2022-11-03T00:36:48.377Z,2.40
2022-11-03T00:38:51.446Z,2.85
2022-11-03T00:41:02.286Z,2.42
2022-11-03T00:43:04.350Z,2.30
2022-11-03T00:45:06.265Z,2.17
2022-11-03T00:47:07.772Z,3.85
2022-11-03T00:49:09.417Z,1.85
2022-11-03T00:51:15.214Z,3.33
2022-11-03T00:53:16.722Z,3.47
2022-11-03T00:55:18.304Z,2.47
2022-11-03T00:57:20.013Z,3.28
2022-11-03T00:59:46.667Z,3.45
2022-11-03T01:01:48.345Z,3.58
2022-11-03T01:04:13.182Z,2.30
2022-11-03T01:06:33.102Z,1.88
2022-11-03T01:08:35.321Z,2.08
2022-11-03T01:10:37.780Z,2.47
2022-11-03T01:12:39.276Z,2.25
2022-11-03T01:14:42.432Z,1.50
2022-11-03T01:16:44.341Z,2.75
2022-11-03T01:18:45.983Z,2.97
2022-11-03T01:20:47.588Z,3.22
2022-11-03T01:22:49.016Z,1.48
2022-11-03T01:24:52.040Z,1.67
2022-11-03T01:26:53.729Z,1.98
2022-11-03T01:28:55.199Z,1.88
2022-11-03T01:30:56.804Z,1.70
2022-11-03T01:32:58.168Z,1.45
2022-11-03T01:34:59.620Z,2.40
2022-11-03T01:37:01.170Z,1.83
2022-11-03T01:39:02.610Z,2.03
2022-11-03T01:41:05.304Z,2.63
2022-11-03T01:43:16.814Z,1.83
2022-11-03T01:45:18.253Z,1.90
2022-11-03T01:47:31.444Z,2.05
2022-11-03T01:49:35.643Z,2.13
2022-11-03T01:53:42.508Z,2.88
2022-11-03T01:55:45.028Z,2.45
2022-11-03T01:57:57.736Z,3.72
2022-11-03T02:00:00.864Z,3.28
2022-11-03T02:02:03.008Z,3.58
2022-11-03T02:04:08.428Z,5.95
2022-11-03T02:06:10.216Z,4.63
2022-11-03T02:08:19.724Z,3.25
2022-11-03T02:10:22.759Z,3.13
2022-11-03T02:12:24.348Z,2.92
2022-11-03T02:14:25.776Z,2.97
2022-11-03T02:16:29.080Z,3.03
2022-11-03T02:18:32.946Z,3.13
2022-11-03T02:20:34.958Z,3.10
2022-11-03T02:22:55.208Z,3.35
2022-11-03T02:25:05.987Z,2.67
2022-11-03T02:27:07.532Z,3.15
2022-11-03T02:29:09.024Z,2.63
2022-11-03T02:31:10.432Z,2.67
2022-11-03T02:33:15.108Z,4.85
2022-11-03T02:35:16.597Z,3.17
2022-11-03T02:37:20.995Z,3.92
2022-11-03T02:39:28.106Z,3.33
2022-11-03T02:41:31.768Z,2.00
2022-11-03T02:43:33.324Z,2.05
2022-11-03T02:45:35.033Z,2.38
2022-11-03T02:47:37.534Z,2.97
2022-11-03T02:49:40.038Z,2.65
2022-11-03T02:51:41.529Z,2.53
2022-11-03T02:53:45.884Z,2.58
2022-11-03T02:56:03.571Z,2.85
2022-11-03T02:58:27.320Z,3.22
2022-11-03T03:00:29.937Z,4.13
2022-11-03T03:02:35.165Z,2.40
2022-11-03T03:04:40.668Z,2.10
2022-11-03T03:06:45.840Z,2.40
2022-11-03T03:08:48.881Z,3.25
2022-11-03T03:10:50.625Z,3.17
2022-11-03T03:12:57.903Z,3.63
2022-11-03T03:15:00.851Z,3.10
2022-11-03T03:17:07.807Z,3.22
2022-11-03T03:19:09.205Z,3.15
2022-11-03T03:21:16.991Z,2.05
2022-11-03T03:23:20.433Z,3.08
2022-11-03T03:25:24.877Z,3.10
2022-11-03T03:27:27.589Z,2.42
2022-11-03T03:29:31.784Z,2.63
2022-11-03T03:33:35.434Z,2.97
2022-11-03T03:35:38.705Z,3.05
2022-11-03T03:37:42.953Z,3.37
2022-11-03T03:39:47.518Z,3.00
2022-11-03T03:41:49.244Z,3.13
2022-11-03T03:43:55.402Z,2.55
2022-11-03T03:46:00.933Z,4.13
2022-11-03T03:48:02.991Z,3.40
2022-11-03T03:50:04.657Z,3.03
2022-11-03T03:52:09.365Z,2.85
2022-11-03T03:54:10.792Z,6.18
2022-11-03T03:56:13.116Z,3.35
2022-11-03T03:58:15.213Z,3.38
2022-11-03T04:00:16.787Z,4.78
2022-11-03T04:02:18.282Z,4.07
2022-11-03T04:04:19.753Z,2.55
2022-11-03T04:06:21.291Z,4.00
2022-11-03T04:08:23.518Z,2.67
2022-11-03T04:10:25.232Z,5.07
2022-11-03T04:12:45.119Z,3.63
2022-11-03T04:15:04.990Z,2.95
2022-11-03T04:17:35.096Z,3.95
2022-11-03T04:19:55.059Z,3.10
2022-11-03T04:22:15.066Z,2.70
2022-11-03T04:24:16.596Z,3.33
2022-11-03T04:26:18.936Z,4.05
2022-11-03T04:28:20.980Z,2.45
2022-11-03T04:30:25.020Z,2.72
2022-11-03T04:32:26.517Z,4.85
2022-11-03T04:34:27.992Z,3.08
2022-11-03T04:36:29.515Z,1.70
2022-11-03T04:38:30.902Z,3.28
2022-11-03T04:40:33.362Z,2.50
2022-11-03T04:42:35.028Z,2.05
2022-11-03T04:44:36.510Z,2.30
2022-11-03T04:46:37.930Z,2.35
2022-11-03T04:48:39.377Z,1.77
2022-11-03T04:50:45.660Z,2.78
2022-11-03T04:52:49.297Z,1.75
2022-11-03T04:54:52.323Z,1.92
2022-11-03T04:56:53.975Z,2.08
2022-11-03T04:58:55.430Z,1.95
2022-11-03T05:00:59.166Z,1.55
2022-11-03T05:03:00.680Z,3.25
2022-11-03T05:05:05.115Z,1.80
2022-11-03T05:07:15.657Z,3.00
2022-11-03T05:09:28.910Z,1.85
2022-11-03T05:11:41.446Z,2.08
2022-11-03T05:13:42.990Z,2.05
2022-11-03T05:15:45.536Z,1.85
2022-11-03T05:17:46.989Z,2.97
2022-11-03T05:19:48.881Z,1.70
2022-11-03T05:21:50.778Z,2.10
2022-11-03T05:24:02.736Z,4.57
2022-11-03T05:26:05.397Z,2.00
2022-11-03T05:28:21.054Z,1.80
2022-11-03T05:30:22.439Z,1.92
2022-11-03T05:32:33.602Z,1.98
2022-11-03T05:34:41.007Z,2.08
2022-11-03T05:36:42.384Z,2.80
2022-11-03T05:38:43.957Z,2.30
2022-11-03T05:40:45.371Z,2.15
2022-11-03T05:42:47.272Z,2.22
2022-11-03T05:44:49.709Z,2.08
2022-11-03T05:46:51.128Z,1.70
2022-11-03T05:48:52.746Z,2.47
2022-11-03T05:50:56.135Z,3.05
2022-11-03T05:53:03.589Z,3.10
2022-11-03T05:55:05.394Z,2.10
2022-11-03T05:57:16.580Z,3.42
2022-11-03T05:59:20.722Z,1.85
2022-11-03T06:01:28.531Z,2.28
2022-11-03T06:03:31.310Z,1.92
2022-11-03T06:05:36.059Z,2.00
2022-11-03T06:07:37.574Z,2.10
2022-11-03T06:09:39.250Z,2.38
2022-11-03T06:11:40.920Z,2.70
2022-11-03T06:13:42.396Z,3.33
2022-11-03T06:15:45.735Z,1.85
2022-11-03T06:17:49.028Z,1.70
2022-11-03T06:19:52.540Z,2.30
2022-11-03T06:21:55.441Z,2.42
2022-11-03T06:23:58.568Z,1.98
2022-11-03T06:26:02.553Z,2.58
2022-11-03T06:28:10.089Z,2.78
2022-11-03T06:30:24.027Z,1.70
2022-11-03T06:32:25.624Z,2.40
2022-11-03T06:34:36.636Z,3.08
2022-11-03T06:36:38.090Z,2.67
2022-11-03T06:38:39.510Z,2.58
2022-11-03T06:40:41.121Z,2.30
2022-11-03T06:42:42.889Z,2.13
2022-11-03T06:44:46.145Z,2.45
2022-11-03T06:46:47.669Z,3.00
2022-11-03T06:48:49.944Z,3.00
2022-11-03T06:50:51.962Z,2.28
2022-11-03T06:52:54.022Z,2.72
2022-11-03T06:54:55.433Z,2.95
2022-11-03T06:56:56.921Z,2.33
2022-11-03T06:58:58.530Z,2.42
2022-11-03T07:01:03.665Z,2.53
2022-11-03T07:03:08.836Z,3.40
2022-11-03T07:05:17.853Z,1.67
2022-11-03T07:07:19.404Z,3.40
2022-11-03T07:09:26.084Z,2.33
2022-11-03T07:11:29.579Z,2.13
2022-11-03T07:13:32.594Z,2.20
2022-11-03T07:15:35.674Z,1.63
2022-11-03T07:17:37.421Z,1.85
2022-11-03T07:19:40.797Z,2.47
2022-11-03T07:21:53.105Z,3.05
2022-11-03T07:23:54.904Z,2.15
2022-11-03T07:26:00.314Z,2.28
2022-11-03T07:28:02.233Z,3.17
2022-11-03T07:30:15.813Z,2.45
2022-11-03T07:32:21.321Z,2.17
2022-11-03T07:34:25.791Z,2.40
2022-11-03T07:36:30.866Z,2.25
2022-11-03T07:38:33.439Z,1.67
2022-11-03T07:40:35.280Z,1.75
2022-11-03T07:42:37.138Z,1.45
2022-11-03T07:44:38.778Z,2.15
2022-11-03T07:46:40.313Z,2.88
2022-11-03T07:48:45.259Z,2.00
2022-11-03T07:50:50.918Z,1.70
2022-11-03T07:52:52.692Z,1.95
2022-11-03T07:54:56.909Z,1.92
2022-11-03T07:59:09.023Z,1.88
2022-11-03T08:01:23.118Z,2.15
2022-11-03T08:03:46.288Z,2.63
2022-11-03T08:05:47.993Z,2.55
2022-11-03T08:07:49.549Z,2.90
2022-11-03T08:09:51.577Z,2.20
2022-11-03T08:11:53.193Z,2.55
2022-11-03T08:13:54.732Z,2.53
2022-11-03T08:15:56.305Z,4.03
2022-11-03T08:17:58.106Z,2.97
2022-11-03T08:19:59.790Z,3.85
2022-11-03T08:22:01.229Z,5.50
2022-11-03T08:24:02.953Z,2.90
2022-11-03T08:26:04.493Z,3.25
2022-11-03T08:28:05.964Z,3.95
2022-11-03T08:30:07.905Z,3.35
2022-11-03T08:32:09.344Z,2.42
2022-11-03T08:34:11.489Z,3.55
2022-11-03T08:36:13.222Z,2.92
2022-11-03T08:38:14.633Z,2.90
2022-11-03T08:40:16.226Z,2.63
2022-11-03T08:42:17.839Z,2.13
2022-11-03T08:44:19.314Z,4.45
2022-11-03T08:46:21.218Z,2.40
2022-11-03T08:48:27.195Z,2.65
2022-11-03T08:50:28.766Z,1.50
2022-11-03T08:52:30.406Z,3.28
2022-11-03T08:54:31.845Z,2.78
2022-11-03T08:56:33.348Z,1.95
2022-11-03T08:58:34.777Z,2.25
2022-11-03T09:00:40.730Z,3.10
2022-11-03T09:02:45.852Z,3.63
2022-11-03T09:04:47.592Z,3.15
2022-11-03T09:06:49.440Z,2.55
2022-11-03T09:11:12.685Z,2.83
2022-11-03T09:13:14.226Z,4.53
2022-11-03T09:15:15.997Z,4.50
2022-11-03T09:17:17.746Z,5.07
2022-11-03T09:19:19.142Z,4.40
2022-11-03T09:21:20.538Z,4.80
2022-11-03T09:23:22.885Z,4.68
2022-11-03T09:25:24.616Z,5.60
2022-11-03T09:27:26.019Z,8.63
2022-11-03T09:29:32.840Z,7.50
2022-11-03T09:33:43.661Z,7.72
2022-11-03T09:35:45.204Z,14.50
2022-11-03T09:37:46.623Z,13.15
2022-11-03T09:39:48.317Z,15.32
2022-11-03T09:41:58.542Z,19.95
2022-11-03T09:44:01.065Z,8.82
2022-11-03T09:46:03.024Z,5.38
2022-11-03T09:48:05.617Z,3.83
2022-11-03T09:50:11.773Z,2.92
2022-11-03T09:52:15.637Z,2.15
2022-11-03T09:54:17.493Z,1.98
2022-11-03T09:56:21.239Z,1.48
2022-11-03T09:58:22.716Z,1.33
2022-11-03T10:00:24.391Z,1.20
2022-11-03T10:02:31.505Z,1.10
2022-11-03T10:04:33.160Z,2.00
2022-11-03T10:06:34.700Z,1.33
2022-11-03T10:08:39.378Z,1.25
2022-11-03T10:10:40.857Z,1.10
2022-11-03T10:12:42.594Z,1.27
2022-11-03T10:14:45.196Z,0.90
2022-11-03T10:16:53.465Z,2.05
2022-11-03T10:18:55.204Z,1.00
2022-11-03T10:20:58.913Z,1.00
2022-11-03T10:23:00.391Z,0.98
2022-11-03T10:25:21.469Z,1.60
2022-11-03T10:27:23.910Z,1.05
2022-11-03T10:29:26.888Z,0.75
2022-11-03T10:31:32.633Z,0.75
2022-11-03T10:33:38.480Z,0.98
2022-11-03T10:35:41.937Z,1.30
2022-11-03T10:37:43.395Z,1.17
2022-11-03T10:39:45.513Z,0.70
2022-11-03T10:41:55.932Z,0.90
2022-11-03T10:44:00.629Z,0.65
2022-11-03T10:49:01.744Z,1.23
2022-11-03T10:51:03.312Z,1.35
2022-11-03T10:53:05.259Z,0.90
2022-11-03T10:55:07.557Z,1.10
2022-11-03T10:57:09.262Z,1.10
2022-11-03T10:59:16.359Z,0.82
2022-11-03T11:01:18.223Z,2.08
2022-11-03T11:03:20.791Z,0.77
2022-11-03T11:05:23.501Z,1.35
2022-11-03T11:07:41.406Z,0.90
2022-11-03T11:09:42.938Z,0.73
2022-11-03T11:12:00.763Z,1.40
2022-11-03T11:14:21.051Z,0.80
2022-11-03T11:16:42.323Z,1.00
2022-11-03T11:18:43.741Z,0.75
2022-11-03T11:21:35.737Z,1.00
2022-11-03T11:24:02.478Z,1.23
2022-11-03T11:26:06.946Z,1.40
2022-11-03T11:28:18.072Z,1.10
2022-11-03T11:30:19.569Z,1.58
2022-11-03T11:32:39.512Z,1.38
2022-11-03T11:34:41.270Z,2.30
2022-11-03T11:36:44.147Z,1.80
2022-11-03T11:38:55.494Z,2.78
2022-11-03T11:40:57.377Z,2.45
2022-11-03T11:43:13.165Z,2.25
2022-11-03T11:45:14.833Z,2.40
2022-11-03T11:47:34.720Z,2.55
2022-11-03T11:49:36.108Z,2.75
2022-11-03T11:51:40.628Z,2.55
2022-11-03T11:53:42.838Z,2.70
2022-11-03T11:55:50.608Z,2.50
2022-11-03T11:57:53.470Z,2.75
2022-11-03T11:59:55.085Z,2.17
2022-11-03T12:01:57.276Z,2.20
2022-11-03T12:04:04.807Z,2.92
2022-11-03T12:06:06.822Z,2.70
2022-11-03T12:08:21.280Z,4.22
2022-11-03T12:10:24.027Z,2.97
2022-11-03T12:12:50.761Z,2.67
2022-11-03T12:14:52.348Z,2.58
2022-11-03T12:17:19.132Z,2.72
2022-11-03T12:19:37.423Z,3.25
2022-11-03T12:21:48.494Z,3.08
2022-11-03T12:23:50.121Z,2.75
2022-11-03T12:25:51.702Z,3.38
2022-11-03T12:27:53.370Z,2.13
2022-11-03T12:29:59.514Z,2.40
2022-11-03T12:32:02.438Z,2.08
2022-11-03T12:34:06.676Z,1.98
2022-11-03T12:38:11.327Z,1.77
2022-11-03T12:40:14.911Z,0.93
2022-11-03T12:42:20.308Z,1.50
2022-11-03T12:44:23.552Z,1.27
2022-11-03T12:46:25.926Z,0.80
2022-11-03T12:48:29.349Z,1.15
2022-11-03T12:50:32.472Z,1.08
2022-11-03T12:52:34.834Z,0.80
2022-11-03T12:54:36.962Z,1.15
2022-11-03T12:56:40.309Z,0.47
2022-11-03T12:58:43.420Z,0.90
2022-11-03T13:00:52.111Z,1.10
2022-11-03T13:02:57.449Z,0.90
2022-11-03T13:04:59.210Z,0.88
2022-11-03T13:07:01.100Z,0.77
2022-11-03T13:09:02.510Z,0.57
2022-11-03T13:11:04.052Z,0.70
2022-11-03T13:13:05.736Z,0.85
2022-11-03T13:15:08.492Z,0.68
2022-11-03T13:17:10.156Z,1.08
2022-11-03T13:19:11.560Z,0.43
2022-11-03T13:21:13.519Z,0.90
2022-11-03T13:27:20.929Z,1.10
2022-11-03T13:29:22.410Z,0.82
2022-11-03T13:31:24.070Z,0.50
2022-11-03T13:33:25.476Z,0.65
2022-11-03T13:35:27.084Z,0.90
2022-11-03T13:37:29.275Z,0.95
2022-11-03T13:39:30.959Z,0.60
2022-11-03T13:41:32.493Z,0.93
2022-11-03T13:43:34.089Z,0.52
2022-11-03T13:45:35.705Z,0.70
2022-11-03T13:48:15.526Z,0.60
2022-11-03T13:50:13.717Z,1.52
2022-11-03T13:52:16.257Z,1.08
2022-11-03T14:01:22.668Z,1.33
2022-11-03T14:05:46.060Z,0.75
2022-11-03T14:07:48.358Z,0.50
2022-11-03T14:09:49.719Z,1.13
2022-11-03T14:12:10.091Z,0.85
2022-11-03T14:14:11.513Z,0.45
2022-11-03T14:16:13.120Z,0.70
2022-11-03T14:18:14.822Z,0.90
2022-11-03T14:20:16.345Z,0.80
2022-11-03T14:22:17.808Z,1.05
2022-11-03T14:24:19.209Z,0.90
2022-11-03T14:26:40.055Z,1.48
2022-11-03T14:28:42.403Z,1.70
2022-11-03T14:30:44.000Z,1.23
2022-11-03T14:32:45.524Z,0.82
2022-11-03T14:34:47.922Z,1.20
2022-11-03T14:36:49.602Z,0.80
2022-11-03T14:38:51.425Z,0.65
2022-11-03T14:41:11.624Z,0.90
2022-11-03T14:43:13.373Z,1.05
2022-11-03T14:45:14.848Z,0.88
2022-11-03T14:47:23.780Z,1.02
2022-11-03T14:49:25.212Z,1.05
2022-11-03T14:51:26.651Z,1.08
2022-11-03T14:53:28.295Z,0.95
2022-11-03T14:55:29.764Z,0.52
2022-11-03T14:57:31.339Z,0.63
2022-11-03T14:59:33.769Z,1.65
2022-11-03T15:01:36.622Z,1.35
2022-11-03T15:03:39.434Z,0.50
2022-11-03T15:05:44.113Z,0.95
2022-11-03T15:07:45.771Z,1.10
2022-11-03T15:09:47.524Z,1.02
2022-11-03T15:11:48.958Z,0.77
2022-11-03T15:13:52.643Z,0.65
2022-11-03T15:15:55.059Z,0.77
2022-11-03T15:18:02.517Z,0.77
2022-11-03T15:20:04.547Z,0.80
2022-11-03T15:22:06.060Z,1.08
2022-11-03T15:26:29.381Z,1.00
2022-11-03T15:28:30.948Z,1.23
2022-11-03T15:30:32.441Z,2.92
2022-11-03T15:32:36.532Z,1.58
2022-11-03T15:34:38.433Z,1.10
2022-11-03T15:36:46.065Z,2.08
2022-11-03T15:38:56.544Z,1.90
2022-11-03T15:41:16.440Z,1.48
2022-11-03T15:43:21.932Z,1.60
2022-11-03T15:45:30.900Z,1.73
2022-11-03T15:47:35.355Z,1.60
2022-11-03T15:49:42.916Z,1.98
2022-11-03T15:51:45.612Z,2.47
2022-11-03T15:53:50.264Z,1.67
2022-11-03T15:55:55.538Z,2.72
2022-11-03T15:57:58.458Z,2.25
2022-11-03T16:00:00.579Z,2.03
2022-11-03T16:02:13.739Z,2.00
2022-11-03T16:04:25.910Z,1.42
2022-11-03T16:06:53.880Z,1.75
2022-11-03T16:08:50.695Z,2.00
2022-11-03T16:10:57.687Z,2.03
2022-11-03T16:12:59.850Z,3.30
2022-11-03T16:15:01.513Z,2.00
2022-11-03T16:17:05.079Z,1.80
2022-11-03T16:19:06.609Z,3.22
2022-11-03T16:21:08.009Z,1.88
2022-11-03T16:23:09.453Z,1.67
2022-11-03T16:25:12.900Z,1.75
2022-11-03T16:27:15.858Z,1.88
2022-11-03T16:29:17.537Z,1.27
2022-11-03T16:31:18.955Z,1.98
2022-11-03T16:33:20.469Z,1.60
2022-11-03T16:35:22.047Z,1.50
2022-11-03T16:37:25.613Z,1.70
2022-11-03T16:39:27.048Z,1.88
2022-11-03T16:41:28.800Z,1.75
2022-11-03T16:43:56.189Z,1.75
2022-11-03T16:45:57.940Z,2.05
2022-11-03T16:47:59.657Z,1.48
2022-11-03T16:50:13.108Z,1.25
2022-11-03T16:52:14.773Z,3.10
2022-11-03T16:54:20.114Z,2.92
2022-11-03T16:56:22.005Z,1.90
2022-11-03T16:58:23.769Z,1.30
2022-11-03T17:00:27.326Z,1.77
2022-11-03T17:02:29.592Z,1.83
2022-11-03T17:04:31.044Z,7.32
2022-11-03T17:06:32.524Z,15.10
2022-11-03T17:10:55.623Z,10.85
2022-11-03T17:12:57.383Z,5.72
2022-11-03T17:14:58.904Z,5.78
2022-11-03T17:17:00.297Z,6.10
2022-11-03T17:19:01.760Z,5.22
2022-11-03T17:21:03.187Z,6.85
2022-11-03T17:23:04.651Z,6.53
2022-11-03T17:25:07.723Z,4.97
2022-11-03T17:27:17.811Z,4.43
2022-11-03T17:29:21.438Z,4.75
2022-11-03T17:31:23.973Z,3.75
2022-11-03T17:33:25.495Z,3.40
2022-11-03T17:35:39.693Z,3.35
2022-11-03T17:37:41.472Z,3.20
2022-11-03T17:39:43.689Z,5.15
2022-11-03T17:41:45.438Z,3.33
2022-11-03T17:43:46.867Z,4.65
2022-11-03T17:45:48.765Z,4.00
2022-11-03T17:47:50.514Z,3.63
2022-11-03T17:49:52.297Z,2.92
2022-11-03T17:51:53.795Z,3.97
2022-11-03T17:54:20.300Z,4.50
2022-11-03T17:56:46.436Z,3.40
2022-11-03T17:58:48.196Z,3.25
2022-11-03T18:00:49.815Z,2.90
2022-11-03T18:02:51.765Z,3.60
2022-11-03T18:04:55.572Z,3.05
2022-11-03T18:06:57.648Z,3.28
2022-11-03T18:08:59.648Z,3.50
2022-11-03T18:11:01.430Z,3.88
2022-11-03T18:13:16.361Z,2.90
2022-11-03T18:15:19.222Z,3.53
2022-11-03T18:17:20.632Z,5.63
2022-11-03T18:19:22.964Z,19.38
2022-11-03T18:21:24.800Z,24.75
2022-11-03T18:23:35.055Z,10.50
2022-11-03T18:25:36.798Z,5.03
2022-11-03T18:27:38.293Z,3.78
2022-11-03T18:29:39.853Z,2.83
2022-11-03T18:31:43.017Z,2.70
2022-11-03T18:33:44.794Z,2.38
2022-11-03T18:35:46.433Z,1.80
2022-11-03T18:37:54.825Z,2.28
2022-11-03T18:39:59.951Z,2.60
2022-11-03T18:42:21.377Z,1.75
2022-11-03T18:44:29.333Z,3.88
2022-11-03T18:46:34.240Z,3.22
2022-11-03T18:48:40.640Z,2.70
2022-11-03T18:50:55.474Z,2.75
2022-11-03T18:53:01.781Z,2.30
2022-11-03T18:55:15.841Z,2.70
2022-11-03T18:57:27.588Z,3.22
2022-11-03T18:59:37.023Z,2.22
2022-11-03T19:01:42.960Z,3.35
2022-11-03T19:03:47.909Z,2.30
2022-11-03T19:05:52.610Z,2.35
2022-11-03T19:07:59.634Z,2.78
2022-11-03T19:10:06.358Z,2.10
2022-11-03T19:12:09.509Z,2.10
2022-11-03T19:14:15.255Z,1.63
2022-11-03T19:16:21.363Z,1.77
2022-11-03T19:18:23.657Z,1.73
2022-11-03T19:20:25.601Z,1.42
2022-11-03T19:22:27.172Z,2.42
2022-11-03T19:24:28.597Z,2.78
2022-11-03T19:26:35.414Z,2.08
2022-11-03T19:28:36.857Z,1.50
2022-11-03T19:30:38.297Z,2.05
2022-11-03T19:32:47.420Z,2.40
2022-11-03T19:34:51.442Z,2.65
2022-11-03T19:36:53.051Z,2.72
2022-11-03T19:38:55.138Z,2.95
2022-11-03T19:41:15.101Z,3.88
2022-11-03T19:43:16.574Z,5.15
2022-11-03T19:45:19.141Z,3.67
2022-11-03T19:47:20.682Z,2.95
2022-11-03T19:49:22.476Z,1.75
2022-11-03T19:51:24.303Z,1.67
2022-11-03T19:53:27.345Z,1.77
2022-11-03T19:55:36.981Z,1.38
2022-11-03T19:57:38.699Z,1.33
2022-11-03T19:59:43.383Z,2.10
2022-11-03T20:01:44.868Z,2.72
2022-11-03T20:03:46.414Z,2.42
2022-11-03T20:05:49.844Z,2.10
2022-11-03T20:07:51.407Z,2.00
2022-11-03T20:09:53.166Z,2.75
2022-11-03T20:11:58.718Z,3.03
2022-11-03T20:14:00.832Z,2.92
2022-11-03T20:16:02.612Z,2.85
2022-11-03T20:18:04.130Z,3.15
2022-11-03T20:20:06.340Z,3.63
2022-11-03T20:22:10.804Z,4.30
2022-11-03T20:24:15.149Z,5.47
2022-11-03T20:26:18.226Z,5.38
2022-11-03T20:28:21.527Z,3.60
2022-11-03T20:30:26.162Z,3.25
2022-11-03T20:32:27.624Z,4.72
2022-11-03T20:34:29.322Z,6.85
2022-11-03T20:36:33.275Z,7.22
2022-11-03T20:38:34.809Z,4.10
2022-11-03T20:40:36.309Z,5.07
2022-11-03T20:42:38.265Z,5.88
2022-11-03T20:44:40.098Z,7.05
2022-11-03T20:46:41.847Z,6.10
2022-11-03T20:48:43.412Z,4.82
2022-11-03T20:50:44.957Z,5.13
2022-11-03T20:52:46.932Z,5.13
2022-11-03T20:54:48.558Z,5.78
2022-11-03T20:56:50.037Z,6.43
2022-11-03T20:58:51.878Z,5.55
2022-11-03T21:00:53.360Z,4.32
2022-11-03T21:02:55.737Z,5.22
2022-11-03T21:04:57.882Z,4.78
2022-11-03T21:06:59.372Z,4.55
2022-11-03T21:09:01.817Z,4.10
2022-11-03T21:11:23.853Z,4.03
2022-11-03T21:13:25.308Z,4.18
2022-11-03T21:16:10.476Z,5.70
2022-11-03T21:18:30.511Z,4.25
2022-11-03T21:20:32.492Z,4.60
2022-11-03T21:22:51.814Z,4.88
2022-11-03T21:24:53.766Z,7.72
2022-11-03T21:26:55.197Z,4.32
2022-11-03T21:28:56.614Z,4.05
2022-11-03T21:30:58.099Z,4.28
2022-11-03T21:32:59.529Z,5.05
2022-11-03T21:35:01.776Z,6.55
2022-11-03T21:37:03.235Z,6.38
2022-11-03T21:39:04.686Z,5.50
2022-11-03T21:41:25.936Z,6.30
2022-11-03T21:43:46.459Z,5.50
2022-11-03T21:45:48.263Z,5.63
2022-11-03T21:48:14.927Z,6.78
2022-11-03T21:50:22.947Z,5.80
2022-11-03T21:52:40.022Z,5.03
2022-11-03T21:54:46.865Z,5.93
2022-11-03T21:59:07.127Z,7.95
2022-11-03T22:01:19.446Z,5.43
2022-11-03T22:03:26.966Z,5.20
2022-11-03T22:05:36.388Z,6.97
2022-11-03T22:07:41.937Z,5.75
2022-11-03T22:09:53.735Z,6.63
2022-11-03T22:11:58.754Z,6.93
2022-11-03T22:14:02.390Z,9.82
2022-11-03T22:16:27.046Z,5.35
2022-11-03T22:18:29.902Z,5.68
2022-11-03T22:20:49.840Z,5.53
2022-11-03T22:23:09.790Z,7.00
2022-11-03T22:25:30.321Z,4.63
2022-11-03T22:27:32.722Z,4.72
2022-11-03T22:29:53.179Z,5.18
2022-11-03T22:31:54.618Z,4.68
2022-11-03T22:34:14.833Z,4.43
2022-11-03T22:36:25.353Z,4.03
2022-11-03T22:38:45.259Z,4.57
2022-11-03T22:41:05.751Z,4.10
2022-11-03T22:43:26.755Z,3.38
2022-11-03T22:45:46.877Z,4.20
2022-11-03T22:47:48.762Z,4.57
2022-11-03T22:49:50.176Z,5.18
2022-11-03T22:51:51.872Z,4.68
2022-11-03T22:54:12.008Z,3.75
2022-11-03T22:56:13.858Z,3.80
2022-11-03T22:58:15.240Z,3.55
2022-11-03T23:00:20.298Z,4.38
2022-11-03T23:02:21.902Z,3.88
2022-11-03T23:04:23.579Z,4.60
2022-11-03T23:06:26.008Z,4.45
2022-11-03T23:08:29.407Z,4.40
2022-11-03T23:10:31.449Z,4.20
2022-11-03T23:12:33.167Z,3.90
2022-11-03T23:14:53.377Z,4.72
2022-11-03T23:16:54.825Z,4.05
2022-11-03T23:19:15.120Z,5.15
2022-11-03T23:21:16.788Z,4.82
2022-11-03T23:23:36.676Z,3.92
2022-11-03T23:25:38.361Z,4.10
2022-11-03T23:27:39.804Z,4.38
2022-11-03T23:29:41.312Z,4.57
2022-11-03T23:31:43.903Z,4.93
2022-11-03T23:33:45.429Z,4.28
2022-11-03T23:35:47.187Z,5.15
2022-11-03T23:37:48.828Z,5.57
2022-11-03T23:39:50.302Z,4.88
2022-11-03T23:41:52.023Z,5.90
2022-11-03T23:43:54.044Z,6.38
2022-11-03T23:46:14.571Z,6.22
2022-11-03T23:48:34.548Z,5.70
2022-11-03T23:50:38.300Z,6.93
2022-11-03T23:52:39.868Z,5.93
2022-11-03T23:54:41.692Z,5.60
2022-11-03T23:57:02.645Z,5.57
2022-11-03T23:59:05.206Z,4.97
